Delta Virtual Airport Information Service

Tegucigalpa Toncontin International Airport

ICAO: MHTG Country: Honduras
Latitude: 14.0609 Longitude: -87.2171
Latest Arrival : AAL961 (1B) (KMIA-MHTG) Latest Departure : AAL1531 (2B) (MHTG-KMIA)


WX CaptureLIVE
Data provided by noaa.gov | Fetched at 13:00:57

METAR : MHTG 281800Z 18008KT 9999 SCT032TCU 29/18 Q1019 A3009 NOSIG

TAF : MHTG 281700Z 2818/2918 21010KT 9999 SCT030TCU FEW035CB TX29/2821Z TN18/2912Z BECMG 2822/2824 8000 VCSH BECMG 2905/2907 VRB04KT 9999 NSW FEW010 SCT026 BECMG 2915/2917 36008KT SCT030TCU FEW035CB


Runway Data for MHTG
Data provided by openaviationdata.com

Runway ID Mag Var Hdg Length Elevation Surface ILS Freq ILS Id ILS Slope
1 2 16° 6830 ft 3293 ft Concrete -- -- --
19 2 196° 6830 ft 3293 ft Concrete -- -- --

Tegucigalpa Toncontin International Airport, Honduras
Use only for reference purposes



Not for navigational purposes.